sensor_id;sensor_type;location;lat;lon;timestamp;temperature;humidity
15355;DHT22;7777;52.254;9.618;2023-02-28T00:00:29;0.90;99.90
15355;DHT22;7777;52.254;9.618;2023-02-28T00:02:55;0.90;99.90
15355;DHT22;7777;52.254;9.618;2023-02-28T00:05:22;0.90;99.90
15355;DHT22;7777;52.254;9.618;2023-02-28T00:07:50;0.90;99.90
15355;DHT22;7777;52.254;9.618;2023-02-28T00:10:18;0.90;99.90
15355;DHT22;7777;52.254;9.618;2023-02-28T00:12:53;0.90;99.90
15355;DHT22;7777;52.254;9.618;2023-02-28T00:15:23;0.90;99.90
15355;DHT22;7777;52.254;9.618;2023-02-28T00:17:49;0.90;99.90
15355;DHT22;7777;52.254;9.618;2023-02-28T00:20:15;0.90;99.90
15355;DHT22;7777;52.254;9.618;2023-02-28T00:22:50;0.90;99.90
15355;DHT22;7777;52.254;9.618;2023-02-28T00:25:22;0.90;99.90
15355;DHT22;7777;52.254;9.618;2023-02-28T00:27:49;0.90;99.90
15355;DHT22;7777;52.254;9.618;2023-02-28T00:30:18;0.90;99.90
15355;DHT22;7777;52.254;9.618;2023-02-28T00:32:45;1.00;99.90
15355;DHT22;7777;52.254;9.618;2023-02-28T00:35:11;0.90;99.90
15355;DHT22;7777;52.254;9.618;2023-02-28T00:37:38;0.90;99.90
15355;DHT22;7777;52.254;9.618;2023-02-28T00:40:04;0.90;99.90
15355;DHT22;7777;52.254;9.618;2023-02-28T00:42:32;0.90;99.90
15355;DHT22;7777;52.254;9.618;2023-02-28T00:44:58;1.00;99.90
15355;DHT22;7777;52.254;9.618;2023-02-28T00:47:24;0.90;99.90
15355;DHT22;7777;52.254;9.618;2023-02-28T00:49:50;0.90;99.90
15355;DHT22;7777;52.254;9.618;2023-02-28T00:52:15;0.90;99.90
15355;DHT22;7777;52.254;9.618;2023-02-28T00:54:41;0.90;99.90
15355;DHT22;7777;52.254;9.618;2023-02-28T00:57:08;0.90;99.90
15355;DHT22;7777;52.254;9.618;2023-02-28T00:59:34;0.90;99.90
15355;DHT22;7777;52.254;9.618;2023-02-28T01:02:00;0.90;99.90
15355;DHT22;7777;52.254;9.618;2023-02-28T01:04:26;0.90;99.90
15355;DHT22;7777;52.254;9.618;2023-02-28T01:06:51;0.90;99.90
15355;DHT22;7777;52.254;9.618;2023-02-28T01:09:17;0.80;99.90
15355;DHT22;7777;52.254;9.618;2023-02-28T01:11:43;0.80;99.90
15355;DHT22;7777;52.254;9.618;2023-02-28T01:14:13;0.80;99.90
15355;DHT22;7777;52.254;9.618;2023-02-28T01:16:40;0.70;99.90
15355;DHT22;7777;52.254;9.618;2023-02-28T01:19:06;0.70;99.90
15355;DHT22;7777;52.254;9.618;2023-02-28T01:21:31;0.60;99.90
15355;DHT22;7777;52.254;9.618;2023-02-28T01:23:58;0.60;99.90
15355;DHT22;7777;52.254;9.618;2023-02-28T01:26:24;0.50;99.90
15355;DHT22;7777;52.254;9.618;2023-02-28T01:28:51;0.50;99.90
15355;DHT22;7777;52.254;9.618;2023-02-28T01:31:18;0.40;99.90
15355;DHT22;7777;52.254;9.618;2023-02-28T01:33:45;0.40;99.90
15355;DHT22;7777;52.254;9.618;2023-02-28T01:36:14;0.30;99.90
15355;DHT22;7777;52.254;9.618;2023-02-28T01:38:42;0.30;99.90
15355;DHT22;7777;52.254;9.618;2023-02-28T01:41:29;0.20;99.90
15355;DHT22;7777;52.254;9.618;2023-02-28T01:44:05;0.20;99.90
15355;DHT22;7777;52.254;9.618;2023-02-28T01:46:36;0.10;99.90
15355;DHT22;7777;52.254;9.618;2023-02-28T01:49:09;0.10;99.90
15355;DHT22;7777;52.254;9.618;2023-02-28T01:51:52;0.00;99.90
15355;DHT22;7777;52.254;9.618;2023-02-28T01:54:27;0.00;99.90
15355;DHT22;7777;52.254;9.618;2023-02-28T01:59:50;0.00;99.90
15355;DHT22;7777;52.254;9.618;2023-02-28T02:02:21;0.00;99.90
15355;DHT22;7777;52.254;9.618;2023-02-28T02:07:40;-0.10;99.90
15355;DHT22;7777;52.254;9.618;2023-02-28T02:13:08;-0.20;99.90
15355;DHT22;7777;52.254;9.618;2023-02-28T02:18:47;-0.30;99.90
15355;DHT22;7777;52.254;9.618;2023-02-28T02:33:03;-0.50;99.90
15355;DHT22;7777;52.254;9.618;2023-02-28T02:36:26;-0.50;99.90
15355;DHT22;7777;52.254;9.618;2023-02-28T02:38:47;-0.60;99.90
15355;DHT22;7777;52.254;9.618;2023-02-28T02:41:36;-0.60;99.90
15355;DHT22;7777;52.254;9.618;2023-02-28T02:46:45;-0.70;99.90
15355;DHT22;7777;52.254;9.618;2023-02-28T02:49:20;-0.70;99.90
15355;DHT22;7777;52.254;9.618;2023-02-28T02:51:49;-0.70;99.90
15355;DHT22;7777;52.254;9.618;2023-02-28T02:54:21;-0.80;99.90
15355;DHT22;7777;52.254;9.618;2023-02-28T02:56:49;-0.80;99.90
15355;DHT22;7777;52.254;9.618;2023-02-28T02:59:20;-0.80;99.90
15355;DHT22;7777;52.254;9.618;2023-02-28T03:01:53;-0.90;99.90
15355;DHT22;7777;52.254;9.618;2023-02-28T03:04:23;-0.90;99.90
15355;DHT22;7777;52.254;9.618;2023-02-28T03:06:51;-1.00;99.90
15355;DHT22;7777;52.254;9.618;2023-02-28T03:09:24;-1.00;99.90
15355;DHT22;7777;52.254;9.618;2023-02-28T03:11:54;-1.00;99.90
15355;DHT22;7777;52.254;9.618;2023-02-28T03:17:20;-1.10;99.90
15355;DHT22;7777;52.254;9.618;2023-02-28T03:25:30;-1.20;99.90
15355;DHT22;7777;52.254;9.618;2023-02-28T03:28:07;-1.30;99.90
15355;DHT22;7777;52.254;9.618;2023-02-28T03:33:40;-1.30;99.90
15355;DHT22;7777;52.254;9.618;2023-02-28T03:36:17;-1.30;99.90
15355;DHT22;7777;52.254;9.618;2023-02-28T03:39:05;-1.40;99.90
15355;DHT22;7777;52.254;9.618;2023-02-28T03:41:39;-1.40;99.90
15355;DHT22;7777;52.254;9.618;2023-02-28T03:44:14;-1.50;99.90
15355;DHT22;7777;52.254;9.618;2023-02-28T03:46:56;-1.50;99.90
15355;DHT22;7777;52.254;9.618;2023-02-28T03:49:45;-1.50;99.90
15355;DHT22;7777;52.254;9.618;2023-02-28T03:52:14;-1.60;99.90
15355;DHT22;7777;52.254;9.618;2023-02-28T03:54:45;-1.60;99.90
15355;DHT22;7777;52.254;9.618;2023-02-28T04:00:17;-1.70;99.90
15355;DHT22;7777;52.254;9.618;2023-02-28T04:02:45;-1.70;99.90
15355;DHT22;7777;52.254;9.618;2023-02-28T04:05:11;-1.70;99.90
15355;DHT22;7777;52.254;9.618;2023-02-28T04:07:37;-1.80;99.90
15355;DHT22;7777;52.254;9.618;2023-02-28T04:10:04;-1.80;99.90
15355;DHT22;7777;52.254;9.618;2023-02-28T04:12:30;-1.80;99.90
15355;DHT22;7777;52.254;9.618;2023-02-28T04:14:56;-1.90;99.90
15355;DHT22;7777;52.254;9.618;2023-02-28T04:17:21;-1.90;99.90
15355;DHT22;7777;52.254;9.618;2023-02-28T04:19:47;-1.90;99.90
15355;DHT22;7777;52.254;9.618;2023-02-28T04:22:13;-1.90;99.90
15355;DHT22;7777;52.254;9.618;2023-02-28T04:24:39;-1.90;99.90
15355;DHT22;7777;52.254;9.618;2023-02-28T04:27:07;-1.90;99.90
15355;DHT22;7777;52.254;9.618;2023-02-28T04:29:34;-2.00;99.90
15355;DHT22;7777;52.254;9.618;2023-02-28T04:32:00;-2.00;99.90
15355;DHT22;7777;52.254;9.618;2023-02-28T04:34:30;-2.00;99.90
15355;DHT22;7777;52.254;9.618;2023-02-28T04:36:57;-2.00;99.90
15355;DHT22;7777;52.254;9.618;2023-02-28T04:39:28;-2.10;99.90
15355;DHT22;7777;52.254;9.618;2023-02-28T04:41:57;-2.10;99.90
15355;DHT22;7777;52.254;9.618;2023-02-28T04:44:23;-2.10;99.90
15355;DHT22;7777;52.254;9.618;2023-02-28T04:46:49;-2.10;99.90
15355;DHT22;7777;52.254;9.618;2023-02-28T04:49:15;-2.10;99.90
15355;DHT22;7777;52.254;9.618;2023-02-28T04:51:41;-2.20;99.90
15355;DHT22;7777;52.254;9.618;2023-02-28T04:54:08;-2.20;99.90
15355;DHT22;7777;52.254;9.618;2023-02-28T04:56:33;-2.20;99.90
15355;DHT22;7777;52.254;9.618;2023-02-28T04:58:59;-2.30;99.90
15355;DHT22;7777;52.254;9.618;2023-02-28T05:01:27;-2.20;99.90
15355;DHT22;7777;52.254;9.618;2023-02-28T05:03:58;-2.20;99.90
15355;DHT22;7777;52.254;9.618;2023-02-28T05:06:28;-2.30;99.90
15355;DHT22;7777;52.254;9.618;2023-02-28T05:08:55;-2.20;99.90
15355;DHT22;7777;52.254;9.618;2023-02-28T05:11:30;-2.30;99.90
15355;DHT22;7777;52.254;9.618;2023-02-28T05:14:06;-2.30;99.90
15355;DHT22;7777;52.254;9.618;2023-02-28T05:16:36;-2.40;99.90
15355;DHT22;7777;52.254;9.618;2023-02-28T05:19:01;-2.40;99.90
15355;DHT22;7777;52.254;9.618;2023-02-28T05:24:07;-2.30;99.90
15355;DHT22;7777;52.254;9.618;2023-02-28T05:26:37;-2.40;99.90
15355;DHT22;7777;52.254;9.618;2023-02-28T05:29:07;-2.50;99.90
15355;DHT22;7777;52.254;9.618;2023-02-28T05:31:33;-2.40;99.90
15355;DHT22;7777;52.254;9.618;2023-02-28T05:33:59;-2.50;99.90
15355;DHT22;7777;52.254;9.618;2023-02-28T05:36:31;-2.50;99.90
15355;DHT22;7777;52.254;9.618;2023-02-28T05:38:57;-2.50;99.90
15355;DHT22;7777;52.254;9.618;2023-02-28T05:41:28;-2.50;99.90
15355;DHT22;7777;52.254;9.618;2023-02-28T05:43:54;-2.50;99.90
15355;DHT22;7777;52.254;9.618;2023-02-28T05:46:20;-2.50;99.90
15355;DHT22;7777;52.254;9.618;2023-02-28T05:48:47;-2.50;99.90
15355;DHT22;7777;52.254;9.618;2023-02-28T05:51:13;-2.50;99.90
15355;DHT22;7777;52.254;9.618;2023-02-28T05:53:39;-2.50;99.90
15355;DHT22;7777;52.254;9.618;2023-02-28T05:56:05;-2.50;99.90
15355;DHT22;7777;52.254;9.618;2023-02-28T05:58:31;-2.50;99.90
15355;DHT22;7777;52.254;9.618;2023-02-28T06:00:58;-2.40;99.90
15355;DHT22;7777;52.254;9.618;2023-02-28T06:03:24;-2.40;99.90
15355;DHT22;7777;52.254;9.618;2023-02-28T06:05:51;-2.50;99.90
15355;DHT22;7777;52.254;9.618;2023-02-28T06:08:17;-2.50;99.90
15355;DHT22;7777;52.254;9.618;2023-02-28T06:10:43;-2.50;99.90
15355;DHT22;7777;52.254;9.618;2023-02-28T06:13:10;-2.50;99.90
15355;DHT22;7777;52.254;9.618;2023-02-28T06:15:38;-2.40;99.90
15355;DHT22;7777;52.254;9.618;2023-02-28T06:18:04;-2.40;99.90
15355;DHT22;7777;52.254;9.618;2023-02-28T06:20:30;-2.40;99.90
15355;DHT22;7777;52.254;9.618;2023-02-28T06:22:57;-2.40;99.90
15355;DHT22;7777;52.254;9.618;2023-02-28T06:25:27;-2.40;99.90
15355;DHT22;7777;52.254;9.618;2023-02-28T06:27:54;-2.40;99.90
15355;DHT22;7777;52.254;9.618;2023-02-28T06:30:20;-2.40;99.90
15355;DHT22;7777;52.254;9.618;2023-02-28T06:32:52;-2.40;99.90
15355;DHT22;7777;52.254;9.618;2023-02-28T06:35:19;-2.30;99.90
15355;DHT22;7777;52.254;9.618;2023-02-28T06:37:45;-2.40;99.90
15355;DHT22;7777;52.254;9.618;2023-02-28T06:40:12;-2.30;99.90
15355;DHT22;7777;52.254;9.618;2023-02-28T06:42:38;-2.30;99.90
15355;DHT22;7777;52.254;9.618;2023-02-28T06:45:04;-2.30;99.90
15355;DHT22;7777;52.254;9.618;2023-02-28T06:47:35;-2.30;99.90
15355;DHT22;7777;52.254;9.618;2023-02-28T06:50:02;-2.20;99.90
15355;DHT22;7777;52.254;9.618;2023-02-28T06:52:28;-2.30;99.90
15355;DHT22;7777;52.254;9.618;2023-02-28T06:54:53;-2.30;99.90
15355;DHT22;7777;52.254;9.618;2023-02-28T06:57:29;-2.30;99.90
15355;DHT22;7777;52.254;9.618;2023-02-28T06:59:59;-2.30;99.90
15355;DHT22;7777;52.254;9.618;2023-02-28T07:02:26;-2.30;99.90
15355;DHT22;7777;52.254;9.618;2023-02-28T07:04:53;-2.30;99.90
15355;DHT22;7777;52.254;9.618;2023-02-28T07:07:18;-2.20;99.90
15355;DHT22;7777;52.254;9.618;2023-02-28T07:09:44;-2.20;99.90
15355;DHT22;7777;52.254;9.618;2023-02-28T07:12:10;-2.20;99.90
15355;DHT22;7777;52.254;9.618;2023-02-28T07:14:36;-2.20;99.90
15355;DHT22;7777;52.254;9.618;2023-02-28T07:17:02;-2.10;99.90
15355;DHT22;7777;52.254;9.618;2023-02-28T07:19:28;-2.20;99.90
15355;DHT22;7777;52.254;9.618;2023-02-28T07:21:54;-2.10;99.90
15355;DHT22;7777;52.254;9.618;2023-02-28T07:24:20;-2.10;99.90
15355;DHT22;7777;52.254;9.618;2023-02-28T07:26:46;-2.10;99.90
15355;DHT22;7777;52.254;9.618;2023-02-28T07:29:12;-2.00;99.90
15355;DHT22;7777;52.254;9.618;2023-02-28T07:31:38;-2.00;99.90
15355;DHT22;7777;52.254;9.618;2023-02-28T07:34:03;-2.00;99.90
15355;DHT22;7777;52.254;9.618;2023-02-28T07:36:33;-1.90;99.90
15355;DHT22;7777;52.254;9.618;2023-02-28T07:38:59;-1.80;99.90
15355;DHT22;7777;52.254;9.618;2023-02-28T07:41:24;-1.70;99.90
15355;DHT22;7777;52.254;9.618;2023-02-28T07:43:54;-1.70;99.90
15355;DHT22;7777;52.254;9.618;2023-02-28T07:46:21;-1.70;99.90
15355;DHT22;7777;52.254;9.618;2023-02-28T07:48:47;-1.60;99.90
15355;DHT22;7777;52.254;9.618;2023-02-28T07:51:12;-1.50;99.90
15355;DHT22;7777;52.254;9.618;2023-02-28T07:53:38;-1.50;99.90
15355;DHT22;7777;52.254;9.618;2023-02-28T07:56:04;-1.40;99.90
15355;DHT22;7777;52.254;9.618;2023-02-28T07:58:31;-1.30;99.90
15355;DHT22;7777;52.254;9.618;2023-02-28T08:00:57;-1.30;99.90
15355;DHT22;7777;52.254;9.618;2023-02-28T08:03:30;-1.10;99.90
15355;DHT22;7777;52.254;9.618;2023-02-28T08:05:56;-1.10;99.90
15355;DHT22;7777;52.254;9.618;2023-02-28T08:08:22;-1.00;99.90
15355;DHT22;7777;52.254;9.618;2023-02-28T08:10:47;-1.00;99.90
15355;DHT22;7777;52.254;9.618;2023-02-28T08:13:13;-0.80;99.90
15355;DHT22;7777;52.254;9.618;2023-02-28T08:15:41;-0.70;99.90
15355;DHT22;7777;52.254;9.618;2023-02-28T08:18:08;-0.70;99.90
15355;DHT22;7777;52.254;9.618;2023-02-28T08:20:34;-0.60;99.90
15355;DHT22;7777;52.254;9.618;2023-02-28T08:22:59;-0.40;99.90
15355;DHT22;7777;52.254;9.618;2023-02-28T08:25:25;-0.40;99.90
15355;DHT22;7777;52.254;9.618;2023-02-28T08:27:51;-0.30;99.90
15355;DHT22;7777;52.254;9.618;2023-02-28T08:30:17;-0.20;99.90
15355;DHT22;7777;52.254;9.618;2023-02-28T08:32:43;-0.10;99.90
15355;DHT22;7777;52.254;9.618;2023-02-28T08:35:09;0.00;99.90
15355;DHT22;7777;52.254;9.618;2023-02-28T08:37:35;0.10;99.90
15355;DHT22;7777;52.254;9.618;2023-02-28T08:40:01;0.30;99.90
15355;DHT22;7777;52.254;9.618;2023-02-28T08:42:29;0.30;99.90
15355;DHT22;7777;52.254;9.618;2023-02-28T08:44:55;0.40;99.90
15355;DHT22;7777;52.254;9.618;2023-02-28T08:47:21;0.50;99.90
15355;DHT22;7777;52.254;9.618;2023-02-28T08:49:47;0.60;99.90
15355;DHT22;7777;52.254;9.618;2023-02-28T08:52:13;0.70;99.90
15355;DHT22;7777;52.254;9.618;2023-02-28T08:54:39;0.80;99.90
15355;DHT22;7777;52.254;9.618;2023-02-28T08:57:05;0.90;99.90
15355;DHT22;7777;52.254;9.618;2023-02-28T08:59:31;1.00;99.90
15355;DHT22;7777;52.254;9.618;2023-02-28T09:01:57;1.10;99.90
15355;DHT22;7777;52.254;9.618;2023-02-28T09:04:23;1.10;99.90
15355;DHT22;7777;52.254;9.618;2023-02-28T09:06:49;1.20;99.90
15355;DHT22;7777;52.254;9.618;2023-02-28T09:09:15;1.30;99.90
15355;DHT22;7777;52.254;9.618;2023-02-28T09:11:41;1.40;99.90
15355;DHT22;7777;52.254;9.618;2023-02-28T09:14:07;1.50;99.90
15355;DHT22;7777;52.254;9.618;2023-02-28T09:16:34;1.60;99.90
15355;DHT22;7777;52.254;9.618;2023-02-28T09:19:00;1.70;99.90
15355;DHT22;7777;52.254;9.618;2023-02-28T09:21:27;1.80;99.90
15355;DHT22;7777;52.254;9.618;2023-02-28T09:23:53;1.80;99.90
15355;DHT22;7777;52.254;9.618;2023-02-28T09:26:24;1.90;99.90
15355;DHT22;7777;52.254;9.618;2023-02-28T09:28:53;2.00;99.90
15355;DHT22;7777;52.254;9.618;2023-02-28T09:31:22;2.10;99.90
15355;DHT22;7777;52.254;9.618;2023-02-28T09:33:50;2.20;99.90
15355;DHT22;7777;52.254;9.618;2023-02-28T09:36:21;2.40;99.90
15355;DHT22;7777;52.254;9.618;2023-02-28T09:38:49;2.50;99.90
15355;DHT22;7777;52.254;9.618;2023-02-28T09:41:23;2.50;99.90
15355;DHT22;7777;52.254;9.618;2023-02-28T09:43:57;2.60;99.90
15355;DHT22;7777;52.254;9.618;2023-02-28T09:48:58;2.80;99.90
15355;DHT22;7777;52.254;9.618;2023-02-28T09:51:33;2.90;99.90
15355;DHT22;7777;52.254;9.618;2023-02-28T09:54:04;3.00;99.90
15355;DHT22;7777;52.254;9.618;2023-02-28T09:59:28;3.20;99.90
15355;DHT22;7777;52.254;9.618;2023-02-28T10:04:58;3.30;99.90
15355;DHT22;7777;52.254;9.618;2023-02-28T10:08:02;3.40;99.90
15355;DHT22;7777;52.254;9.618;2023-02-28T10:10:49;3.50;99.90
15355;DHT22;7777;52.254;9.618;2023-02-28T10:13:46;3.60;99.90
15355;DHT22;7777;52.254;9.618;2023-02-28T10:16:22;3.70;99.90
15355;DHT22;7777;52.254;9.618;2023-02-28T10:24:37;3.90;99.90
15355;DHT22;7777;52.254;9.618;2023-02-28T10:29:44;4.20;99.90
15355;DHT22;7777;52.254;9.618;2023-02-28T10:32:18;4.20;99.90
15355;DHT22;7777;52.254;9.618;2023-02-28T10:34:59;4.30;99.90
15355;DHT22;7777;52.254;9.618;2023-02-28T10:37:36;4.40;99.90
15355;DHT22;7777;52.254;9.618;2023-02-28T10:40:05;4.60;99.90
15355;DHT22;7777;52.254;9.618;2023-02-28T10:42:55;4.70;99.90
15355;DHT22;7777;52.254;9.618;2023-02-28T10:45:22;4.80;99.90
15355;DHT22;7777;52.254;9.618;2023-02-28T10:47:56;5.00;99.90
15355;DHT22;7777;52.254;9.618;2023-02-28T11:01:40;5.60;99.90
15355;DHT22;7777;52.254;9.618;2023-02-28T11:06:58;5.90;99.90
15355;DHT22;7777;52.254;9.618;2023-02-28T11:11:54;6.10;99.90
15355;DHT22;7777;52.254;9.618;2023-02-28T11:14:22;6.10;99.90
15355;DHT22;7777;52.254;9.618;2023-02-28T11:17:21;6.10;99.90
15355;DHT22;7777;52.254;9.618;2023-02-28T11:19:52;6.20;99.90
15355;DHT22;7777;52.254;9.618;2023-02-28T11:22:22;6.20;99.90
15355;DHT22;7777;52.254;9.618;2023-02-28T11:24:54;6.20;99.90
15355;DHT22;7777;52.254;9.618;2023-02-28T11:29:57;6.10;99.90
15355;DHT22;7777;52.254;9.618;2023-02-28T11:32:28;6.00;99.90
15355;DHT22;7777;52.254;9.618;2023-02-28T11:37:36;6.00;99.90
15355;DHT22;7777;52.254;9.618;2023-02-28T11:40:12;5.90;99.90
15355;DHT22;7777;52.254;9.618;2023-02-28T11:42:48;5.90;99.90
15355;DHT22;7777;52.254;9.618;2023-02-28T11:51:34;5.70;99.90
15355;DHT22;7777;52.254;9.618;2023-02-28T11:57:38;5.50;99.90
15355;DHT22;7777;52.254;9.618;2023-02-28T12:00:23;5.50;99.90
15355;DHT22;7777;52.254;9.618;2023-02-28T12:12:39;5.20;99.90
15355;DHT22;7777;52.254;9.618;2023-02-28T12:20:46;5.20;99.90
15355;DHT22;7777;52.254;9.618;2023-02-28T12:28:59;5.30;99.90
15355;DHT22;7777;52.254;9.618;2023-02-28T12:31:36;5.30;99.90
15355;DHT22;7777;52.254;9.618;2023-02-28T12:34:13;5.30;99.90
15355;DHT22;7777;52.254;9.618;2023-02-28T12:36:43;5.30;99.90
15355;DHT22;7777;52.254;9.618;2023-02-28T12:41:54;5.30;99.90
15355;DHT22;7777;52.254;9.618;2023-02-28T12:44:34;5.30;99.90
15355;DHT22;7777;52.254;9.618;2023-02-28T12:47:10;5.30;99.90
15355;DHT22;7777;52.254;9.618;2023-02-28T12:50:04;5.30;99.90
15355;DHT22;7777;52.254;9.618;2023-02-28T12:52:52;5.30;99.90
15355;DHT22;7777;52.254;9.618;2023-02-28T12:58:39;5.50;99.90
15355;DHT22;7777;52.254;9.618;2023-02-28T13:10:03;6.50;99.90
15355;DHT22;7777;52.254;9.618;2023-02-28T13:12:31;6.70;99.90
15355;DHT22;7777;52.254;9.618;2023-02-28T13:15:16;6.90;99.90
15355;DHT22;7777;52.254;9.618;2023-02-28T13:17:52;7.10;99.90
15355;DHT22;7777;52.254;9.618;2023-02-28T13:20:21;7.20;99.90
15355;DHT22;7777;52.254;9.618;2023-02-28T13:22:52;7.20;99.90
15355;DHT22;7777;52.254;9.618;2023-02-28T13:27:54;7.20;98.70
15355;DHT22;7777;52.254;9.618;2023-02-28T13:33:34;7.10;98.10
15355;DHT22;7777;52.254;9.618;2023-02-28T13:38:44;6.80;97.70
15355;DHT22;7777;52.254;9.618;2023-02-28T13:44:21;6.60;97.70
15355;DHT22;7777;52.254;9.618;2023-02-28T14:06:33;6.10;99.40
15355;DHT22;7777;52.254;9.618;2023-02-28T14:09:15;6.10;98.70
15355;DHT22;7777;52.254;9.618;2023-02-28T14:11:56;6.00;98.90
15355;DHT22;7777;52.254;9.618;2023-02-28T14:17:08;6.10;99.30
15355;DHT22;7777;52.254;9.618;2023-02-28T14:19:41;6.10;98.80
15355;DHT22;7777;52.254;9.618;2023-02-28T14:22:39;6.00;98.90
15355;DHT22;7777;52.254;9.618;2023-02-28T14:25:36;6.10;98.20
15355;DHT22;7777;52.254;9.618;2023-02-28T14:38:57;6.50;98.10
15355;DHT22;7777;52.254;9.618;2023-02-28T14:41:34;6.50;97.00
15355;DHT22;7777;52.254;9.618;2023-02-28T14:44:11;6.60;97.50
15355;DHT22;7777;52.254;9.618;2023-02-28T14:46:41;6.60;97.60
15355;DHT22;7777;52.254;9.618;2023-02-28T14:51:50;6.80;97.40
15355;DHT22;7777;52.254;9.618;2023-02-28T14:54:28;6.70;97.30
15355;DHT22;7777;52.254;9.618;2023-02-28T14:56:54;6.80;97.50
15355;DHT22;7777;52.254;9.618;2023-02-28T14:59:26;6.80;98.40
15355;DHT22;7777;52.254;9.618;2023-02-28T15:02:23;6.80;97.20
15355;DHT22;7777;52.254;9.618;2023-02-28T15:05:02;6.80;97.00
15355;DHT22;7777;52.254;9.618;2023-02-28T15:07:35;6.80;96.40
15355;DHT22;7777;52.254;9.618;2023-02-28T15:13:06;6.80;96.60
15355;DHT22;7777;52.254;9.618;2023-02-28T15:15:41;6.70;95.70
15355;DHT22;7777;52.254;9.618;2023-02-28T15:21:25;6.60;96.00
15355;DHT22;7777;52.254;9.618;2023-02-28T15:24:20;6.60;95.20
15355;DHT22;7777;52.254;9.618;2023-02-28T15:26:56;6.50;95.40
15355;DHT22;7777;52.254;9.618;2023-02-28T15:29:28;6.50;97.00
15355;DHT22;7777;52.254;9.618;2023-02-28T15:32:15;6.50;97.00
15355;DHT22;7777;52.254;9.618;2023-02-28T15:34:52;6.50;96.20
15355;DHT22;7777;52.254;9.618;2023-02-28T15:37:40;6.40;95.90
15355;DHT22;7777;52.254;9.618;2023-02-28T15:48:42;6.30;96.30
15355;DHT22;7777;52.254;9.618;2023-02-28T15:51:32;6.20;96.40
15355;DHT22;7777;52.254;9.618;2023-02-28T15:54:06;6.20;96.70
15355;DHT22;7777;52.254;9.618;2023-02-28T15:56:39;6.10;96.40
15355;DHT22;7777;52.254;9.618;2023-02-28T15:59:32;6.10;97.30
15355;DHT22;7777;52.254;9.618;2023-02-28T16:04:36;6.00;97.60
15355;DHT22;7777;52.254;9.618;2023-02-28T16:07:04;6.00;98.50
15355;DHT22;7777;52.254;9.618;2023-02-28T16:09:30;5.90;98.10
15355;DHT22;7777;52.254;9.618;2023-02-28T16:12:00;6.00;97.70
15355;DHT22;7777;52.254;9.618;2023-02-28T16:14:28;5.90;98.50
15355;DHT22;7777;52.254;9.618;2023-02-28T16:17:07;5.80;98.10
15355;DHT22;7777;52.254;9.618;2023-02-28T16:19:41;5.80;98.00
15355;DHT22;7777;52.254;9.618;2023-02-28T16:22:09;5.70;98.30
15355;DHT22;7777;52.254;9.618;2023-02-28T16:24:35;5.70;98.50
15355;DHT22;7777;52.254;9.618;2023-02-28T16:27:02;5.60;98.10
15355;DHT22;7777;52.254;9.618;2023-02-28T16:29:34;5.60;98.80
15355;DHT22;7777;52.254;9.618;2023-02-28T16:32:03;5.50;97.50
15355;DHT22;7777;52.254;9.618;2023-02-28T16:34:31;5.50;98.50
15355;DHT22;7777;52.254;9.618;2023-02-28T16:36:56;5.40;97.80
15355;DHT22;7777;52.254;9.618;2023-02-28T16:39:22;5.40;98.00
15355;DHT22;7777;52.254;9.618;2023-02-28T16:41:49;5.30;97.60
15355;DHT22;7777;52.254;9.618;2023-02-28T16:44:31;5.20;97.80
15355;DHT22;7777;52.254;9.618;2023-02-28T16:47:03;5.10;98.00
15355;DHT22;7777;52.254;9.618;2023-02-28T16:49:29;5.10;98.20
15355;DHT22;7777;52.254;9.618;2023-02-28T16:51:56;5.00;98.00
15355;DHT22;7777;52.254;9.618;2023-02-28T16:54:27;5.00;97.80
15355;DHT22;7777;52.254;9.618;2023-02-28T16:56:53;4.90;98.00
15355;DHT22;7777;52.254;9.618;2023-02-28T16:59:22;4.80;97.30
15355;DHT22;7777;52.254;9.618;2023-02-28T17:01:50;4.70;97.30
15355;DHT22;7777;52.254;9.618;2023-02-28T17:04:17;4.60;97.00
15355;DHT22;7777;52.254;9.618;2023-02-28T17:06:43;4.50;97.10
15355;DHT22;7777;52.254;9.618;2023-02-28T17:09:20;4.30;97.20
15355;DHT22;7777;52.254;9.618;2023-02-28T17:11:47;4.20;97.30
15355;DHT22;7777;52.254;9.618;2023-02-28T17:14:14;4.10;97.40
15355;DHT22;7777;52.254;9.618;2023-02-28T17:16:41;3.90;97.50
15355;DHT22;7777;52.254;9.618;2023-02-28T17:19:13;3.70;97.60
15355;DHT22;7777;52.254;9.618;2023-02-28T17:21:40;3.70;97.70
15355;DHT22;7777;52.254;9.618;2023-02-28T17:24:10;3.60;97.80
15355;DHT22;7777;52.254;9.618;2023-02-28T17:26:40;3.50;97.90
15355;DHT22;7777;52.254;9.618;2023-02-28T17:29:20;3.40;98.00
15355;DHT22;7777;52.254;9.618;2023-02-28T17:31:46;3.30;98.10
15355;DHT22;7777;52.254;9.618;2023-02-28T17:34:13;3.20;98.10
15355;DHT22;7777;52.254;9.618;2023-02-28T17:36:44;3.10;98.10
15355;DHT22;7777;52.254;9.618;2023-02-28T17:39:12;3.00;98.20
15355;DHT22;7777;52.254;9.618;2023-02-28T17:41:45;3.00;98.30
15355;DHT22;7777;52.254;9.618;2023-02-28T17:44:11;2.90;98.30
15355;DHT22;7777;52.254;9.618;2023-02-28T17:46:36;2.80;98.40
15355;DHT22;7777;52.254;9.618;2023-02-28T17:49:03;2.70;98.50
15355;DHT22;7777;52.254;9.618;2023-02-28T17:51:28;2.60;98.50
15355;DHT22;7777;52.254;9.618;2023-02-28T17:53:54;2.40;98.60
15355;DHT22;7777;52.254;9.618;2023-02-28T17:56:24;2.40;98.90
15355;DHT22;7777;52.254;9.618;2023-02-28T17:58:53;2.40;98.90
15355;DHT22;7777;52.254;9.618;2023-02-28T18:01:20;2.30;98.90
15355;DHT22;7777;52.254;9.618;2023-02-28T18:03:47;2.20;99.20
15355;DHT22;7777;52.254;9.618;2023-02-28T18:06:38;2.00;99.20
15355;DHT22;7777;52.254;9.618;2023-02-28T18:09:16;2.00;99.40
15355;DHT22;7777;52.254;9.618;2023-02-28T18:11:43;2.00;99.70
15355;DHT22;7777;52.254;9.618;2023-02-28T18:14:15;1.90;99.50
15355;DHT22;7777;52.254;9.618;2023-02-28T18:16:41;1.90;99.60
15355;DHT22;7777;52.254;9.618;2023-02-28T18:19:07;1.80;99.70
15355;DHT22;7777;52.254;9.618;2023-02-28T18:21:40;1.70;99.80
15355;DHT22;7777;52.254;9.618;2023-02-28T18:24:07;1.70;99.90
15355;DHT22;7777;52.254;9.618;2023-02-28T18:26:33;1.60;99.90
15355;DHT22;7777;52.254;9.618;2023-02-28T18:28:59;1.60;99.90
15355;DHT22;7777;52.254;9.618;2023-02-28T18:31:25;1.60;99.90
15355;DHT22;7777;52.254;9.618;2023-02-28T18:33:51;1.50;99.90
15355;DHT22;7777;52.254;9.618;2023-02-28T18:36:19;1.50;99.90
15355;DHT22;7777;52.254;9.618;2023-02-28T18:38:46;1.50;99.90
15355;DHT22;7777;52.254;9.618;2023-02-28T18:41:13;1.40;99.90
15355;DHT22;7777;52.254;9.618;2023-02-28T18:43:38;1.30;99.90
15355;DHT22;7777;52.254;9.618;2023-02-28T18:46:09;1.30;99.90
15355;DHT22;7777;52.254;9.618;2023-02-28T18:48:36;1.20;99.90
15355;DHT22;7777;52.254;9.618;2023-02-28T18:51:14;1.20;99.90
15355;DHT22;7777;52.254;9.618;2023-02-28T18:53:45;1.20;99.90
15355;DHT22;7777;52.254;9.618;2023-02-28T18:56:13;1.20;99.90
15355;DHT22;7777;52.254;9.618;2023-02-28T18:58:40;1.10;99.90
15355;DHT22;7777;52.254;9.618;2023-02-28T19:01:25;1.10;99.90
15355;DHT22;7777;52.254;9.618;2023-02-28T19:03:55;1.10;99.90
15355;DHT22;7777;52.254;9.618;2023-02-28T19:06:21;1.00;99.90
15355;DHT22;7777;52.254;9.618;2023-02-28T19:08:55;1.00;99.90
15355;DHT22;7777;52.254;9.618;2023-02-28T19:11:23;0.90;99.90
15355;DHT22;7777;52.254;9.618;2023-02-28T19:13:49;1.00;99.90
15355;DHT22;7777;52.254;9.618;2023-02-28T19:16:18;0.80;99.90
15355;DHT22;7777;52.254;9.618;2023-02-28T19:18:45;0.80;99.90
15355;DHT22;7777;52.254;9.618;2023-02-28T19:21:13;0.70;99.90
15355;DHT22;7777;52.254;9.618;2023-02-28T19:23:40;0.70;99.90
15355;DHT22;7777;52.254;9.618;2023-02-28T19:26:12;0.60;99.90